sensor_id;sensor_type;location;lat;lon;timestamp;temperature;humidity
24730;DHT22;12832;52.392;13.066;2023-08-01T00:00:09;27.50;50.10
24730;DHT22;12832;52.392;13.066;2023-08-01T00:02:37;27.40;50.00
24730;DHT22;12832;52.392;13.066;2023-08-01T00:05:03;27.40;50.00
24730;DHT22;12832;52.392;13.066;2023-08-01T00:07:30;27.50;50.10
24730;DHT22;12832;52.392;13.066;2023-08-01T00:09:56;27.40;50.00
24730;DHT22;12832;52.392;13.066;2023-08-01T00:12:24;27.50;50.10
24730;DHT22;12832;52.392;13.066;2023-08-01T00:14:50;27.50;50.10
24730;DHT22;12832;52.392;13.066;2023-08-01T00:17:16;27.50;50.10
24730;DHT22;12832;52.392;13.066;2023-08-01T00:19:42;27.40;50.00
24730;DHT22;12832;52.392;13.066;2023-08-01T00:22:09;27.50;50.10
24730;DHT22;12832;52.392;13.066;2023-08-01T00:24:35;27.40;50.00
24730;DHT22;12832;52.392;13.066;2023-08-01T00:27:02;27.40;50.00
24730;DHT22;12832;52.392;13.066;2023-08-01T00:29:29;27.40;50.00
24730;DHT22;12832;52.392;13.066;2023-08-01T00:31:55;27.50;50.10
24730;DHT22;12832;52.392;13.066;2023-08-01T00:34:22;27.50;50.00
24730;DHT22;12832;52.392;13.066;2023-08-01T00:36:48;27.40;50.00
24730;DHT22;12832;52.392;13.066;2023-08-01T00:39:15;27.40;50.00
24730;DHT22;12832;52.392;13.066;2023-08-01T00:41:41;27.50;50.00
24730;DHT22;12832;52.392;13.066;2023-08-01T00:44:07;27.50;50.10
24730;DHT22;12832;52.392;13.066;2023-08-01T00:46:33;27.50;50.00
24730;DHT22;12832;52.392;13.066;2023-08-01T00:49:00;27.50;50.10
24730;DHT22;12832;52.392;13.066;2023-08-01T00:51:26;27.50;50.00
24730;DHT22;12832;52.392;13.066;2023-08-01T00:53:53;27.50;50.00
24730;DHT22;12832;52.392;13.066;2023-08-01T00:56:19;27.50;50.00
24730;DHT22;12832;52.392;13.066;2023-08-01T00:58:46;27.50;50.10
24730;DHT22;12832;52.392;13.066;2023-08-01T01:01:12;27.50;50.00
24730;DHT22;12832;52.392;13.066;2023-08-01T01:03:39;27.50;50.00
24730;DHT22;12832;52.392;13.066;2023-08-01T01:06:20;27.50;50.00
24730;DHT22;12832;52.392;13.066;2023-08-01T01:08:50;27.50;50.60
24730;DHT22;12832;52.392;13.066;2023-08-01T01:11:16;27.50;50.00
24730;DHT22;12832;52.392;13.066;2023-08-01T01:13:42;27.50;50.00
24730;DHT22;12832;52.392;13.066;2023-08-01T01:16:08;27.50;50.00
24730;DHT22;12832;52.392;13.066;2023-08-01T01:18:35;27.50;50.00
24730;DHT22;12832;52.392;13.066;2023-08-01T01:21:01;27.50;50.00
24730;DHT22;12832;52.392;13.066;2023-08-01T01:23:27;27.50;50.00
24730;DHT22;12832;52.392;13.066;2023-08-01T01:25:56;27.50;50.00
24730;DHT22;12832;52.392;13.066;2023-08-01T01:28:23;27.50;50.00
24730;DHT22;12832;52.392;13.066;2023-08-01T01:30:51;27.50;50.00
24730;DHT22;12832;52.392;13.066;2023-08-01T01:33:19;27.50;50.00
24730;DHT22;12832;52.392;13.066;2023-08-01T01:35:45;27.50;50.00
24730;DHT22;12832;52.392;13.066;2023-08-01T01:38:13;27.50;50.00
24730;DHT22;12832;52.392;13.066;2023-08-01T01:40:39;27.50;50.00
24730;DHT22;12832;52.392;13.066;2023-08-01T01:43:05;27.50;50.00
24730;DHT22;12832;52.392;13.066;2023-08-01T01:45:31;27.50;50.00
24730;DHT22;12832;52.392;13.066;2023-08-01T01:47:57;27.50;50.00
24730;DHT22;12832;52.392;13.066;2023-08-01T01:50:23;27.50;50.00
24730;DHT22;12832;52.392;13.066;2023-08-01T01:52:50;27.50;50.00
24730;DHT22;12832;52.392;13.066;2023-08-01T01:55:16;27.50;49.90
24730;DHT22;12832;52.392;13.066;2023-08-01T01:57:42;27.50;50.00
24730;DHT22;12832;52.392;13.066;2023-08-01T02:00:10;27.50;49.90
24730;DHT22;12832;52.392;13.066;2023-08-01T02:02:36;27.50;49.90
24730;DHT22;12832;52.392;13.066;2023-08-01T02:05:03;27.50;49.90
24730;DHT22;12832;52.392;13.066;2023-08-01T02:07:32;27.50;49.90
24730;DHT22;12832;52.392;13.066;2023-08-01T02:10:00;27.50;49.90
24730;DHT22;12832;52.392;13.066;2023-08-01T02:12:27;27.50;49.90
24730;DHT22;12832;52.392;13.066;2023-08-01T02:14:54;27.50;49.90
24730;DHT22;12832;52.392;13.066;2023-08-01T02:17:20;27.50;49.90
24730;DHT22;12832;52.392;13.066;2023-08-01T02:19:46;27.50;49.90
24730;DHT22;12832;52.392;13.066;2023-08-01T02:22:12;27.50;50.00
24730;DHT22;12832;52.392;13.066;2023-08-01T02:24:38;27.50;49.90
24730;DHT22;12832;52.392;13.066;2023-08-01T02:27:05;27.50;50.00
24730;DHT22;12832;52.392;13.066;2023-08-01T02:29:31;27.50;50.00
24730;DHT22;12832;52.392;13.066;2023-08-01T02:31:57;27.50;50.60
24730;DHT22;12832;52.392;13.066;2023-08-01T02:34:23;27.50;50.00
24730;DHT22;12832;52.392;13.066;2023-08-01T02:36:50;27.50;50.60
24730;DHT22;12832;52.392;13.066;2023-08-01T02:39:16;27.50;50.00
24730;DHT22;12832;52.392;13.066;2023-08-01T02:41:42;27.50;50.00
24730;DHT22;12832;52.392;13.066;2023-08-01T02:44:08;27.50;50.00
24730;DHT22;12832;52.392;13.066;2023-08-01T02:46:34;27.40;50.00
24730;DHT22;12832;52.392;13.066;2023-08-01T02:49:01;27.40;50.00
24730;DHT22;12832;52.392;13.066;2023-08-01T02:51:27;27.40;50.00
24730;DHT22;12832;52.392;13.066;2023-08-01T02:53:53;27.50;50.10
24730;DHT22;12832;52.392;13.066;2023-08-01T02:56:19;27.50;50.10
24730;DHT22;12832;52.392;13.066;2023-08-01T02:58:46;27.40;50.10
24730;DHT22;12832;52.392;13.066;2023-08-01T03:01:12;27.40;50.10
24730;DHT22;12832;52.392;13.066;2023-08-01T03:03:39;27.40;50.10
24730;DHT22;12832;52.392;13.066;2023-08-01T03:06:06;27.40;50.10
24730;DHT22;12832;52.392;13.066;2023-08-01T03:08:32;27.40;50.10
24730;DHT22;12832;52.392;13.066;2023-08-01T03:10:58;27.40;50.10
24730;DHT22;12832;52.392;13.066;2023-08-01T03:13:25;27.40;50.20
24730;DHT22;12832;52.392;13.066;2023-08-01T03:15:51;27.40;50.20
24730;DHT22;12832;52.392;13.066;2023-08-01T03:18:17;27.40;50.20
24730;DHT22;12832;52.392;13.066;2023-08-01T03:20:43;27.40;50.20
24730;DHT22;12832;52.392;13.066;2023-08-01T03:23:10;27.40;50.20
24730;DHT22;12832;52.392;13.066;2023-08-01T03:25:36;27.40;50.20
24730;DHT22;12832;52.392;13.066;2023-08-01T03:28:04;27.40;50.30
24730;DHT22;12832;52.392;13.066;2023-08-01T03:30:32;27.40;50.30
24730;DHT22;12832;52.392;13.066;2023-08-01T03:32:59;27.40;50.30
24730;DHT22;12832;52.392;13.066;2023-08-01T03:35:25;27.40;50.30
24730;DHT22;12832;52.392;13.066;2023-08-01T03:37:51;27.40;50.30
24730;DHT22;12832;52.392;13.066;2023-08-01T03:40:17;27.40;50.40
24730;DHT22;12832;52.392;13.066;2023-08-01T03:42:45;27.40;50.40
24730;DHT22;12832;52.392;13.066;2023-08-01T03:45:11;27.40;50.40
24730;DHT22;12832;52.392;13.066;2023-08-01T03:47:38;27.40;50.40
24730;DHT22;12832;52.392;13.066;2023-08-01T03:50:04;27.40;50.40
24730;DHT22;12832;52.392;13.066;2023-08-01T03:52:31;27.40;50.40
24730;DHT22;12832;52.392;13.066;2023-08-01T03:54:57;27.40;50.40
24730;DHT22;12832;52.392;13.066;2023-08-01T03:57:23;27.40;50.40
24730;DHT22;12832;52.392;13.066;2023-08-01T03:59:49;27.40;50.50
24730;DHT22;12832;52.392;13.066;2023-08-01T04:02:15;27.30;50.50
24730;DHT22;12832;52.392;13.066;2023-08-01T04:04:41;27.30;50.60
24730;DHT22;12832;52.392;13.066;2023-08-01T04:07:08;27.30;50.60
24730;DHT22;12832;52.392;13.066;2023-08-01T04:09:34;27.30;50.60
24730;DHT22;12832;52.392;13.066;2023-08-01T04:12:00;27.30;50.60
24730;DHT22;12832;52.392;13.066;2023-08-01T04:14:26;27.30;50.70
24730;DHT22;12832;52.392;13.066;2023-08-01T04:16:53;27.30;50.80
24730;DHT22;12832;52.392;13.066;2023-08-01T04:19:19;27.30;50.90
24730;DHT22;12832;52.392;13.066;2023-08-01T04:21:45;27.30;51.00
24730;DHT22;12832;52.392;13.066;2023-08-01T04:24:11;27.30;51.00
24730;DHT22;12832;52.392;13.066;2023-08-01T04:26:38;27.30;51.00
24730;DHT22;12832;52.392;13.066;2023-08-01T04:29:05;27.20;51.50
24730;DHT22;12832;52.392;13.066;2023-08-01T04:31:31;27.20;50.90
24730;DHT22;12832;52.392;13.066;2023-08-01T04:33:57;27.20;51.00
24730;DHT22;12832;52.392;13.066;2023-08-01T04:36:23;27.30;51.10
24730;DHT22;12832;52.392;13.066;2023-08-01T04:38:49;27.20;51.10
24730;DHT22;12832;52.392;13.066;2023-08-01T04:41:16;27.20;51.10
24730;DHT22;12832;52.392;13.066;2023-08-01T04:43:42;27.20;51.20
24730;DHT22;12832;52.392;13.066;2023-08-01T04:46:08;27.20;51.10
24730;DHT22;12832;52.392;13.066;2023-08-01T04:48:35;27.20;51.10
24730;DHT22;12832;52.392;13.066;2023-08-01T04:51:02;27.20;51.20
24730;DHT22;12832;52.392;13.066;2023-08-01T04:53:29;27.20;51.20
24730;DHT22;12832;52.392;13.066;2023-08-01T04:55:55;27.20;51.20
24730;DHT22;12832;52.392;13.066;2023-08-01T04:58:21;27.20;51.30
24730;DHT22;12832;52.392;13.066;2023-08-01T05:00:47;27.20;51.30
24730;DHT22;12832;52.392;13.066;2023-08-01T05:03:13;27.20;51.50
24730;DHT22;12832;52.392;13.066;2023-08-01T05:05:40;27.20;51.60
24730;DHT22;12832;52.392;13.066;2023-08-01T05:08:06;27.10;51.70
24730;DHT22;12832;52.392;13.066;2023-08-01T05:10:32;27.10;51.80
24730;DHT22;12832;52.392;13.066;2023-08-01T05:12:58;27.10;51.90
24730;DHT22;12832;52.392;13.066;2023-08-01T05:15:24;27.00;52.60
24730;DHT22;12832;52.392;13.066;2023-08-01T05:17:52;27.00;52.10
24730;DHT22;12832;52.392;13.066;2023-08-01T05:20:18;27.00;52.20
24730;DHT22;12832;52.392;13.066;2023-08-01T05:22:44;26.90;52.30
24730;DHT22;12832;52.392;13.066;2023-08-01T05:25:10;26.90;52.40
24730;DHT22;12832;52.392;13.066;2023-08-01T05:27:36;26.90;52.50
24730;DHT22;12832;52.392;13.066;2023-08-01T05:30:03;26.90;52.50
24730;DHT22;12832;52.392;13.066;2023-08-01T05:32:29;26.80;52.60
24730;DHT22;12832;52.392;13.066;2023-08-01T05:34:56;26.80;52.70
24730;DHT22;12832;52.392;13.066;2023-08-01T05:37:22;26.80;52.80
24730;DHT22;12832;52.392;13.066;2023-08-01T05:39:48;26.80;52.90
24730;DHT22;12832;52.392;13.066;2023-08-01T05:42:14;26.80;53.10
24730;DHT22;12832;52.392;13.066;2023-08-01T05:44:40;26.80;53.20
24730;DHT22;12832;52.392;13.066;2023-08-01T05:47:06;26.70;53.10
24730;DHT22;12832;52.392;13.066;2023-08-01T05:49:33;26.70;53.20
24730;DHT22;12832;52.392;13.066;2023-08-01T05:51:59;26.70;53.20
24730;DHT22;12832;52.392;13.066;2023-08-01T05:54:26;26.80;53.30
24730;DHT22;12832;52.392;13.066;2023-08-01T05:56:54;26.70;53.30
24730;DHT22;12832;52.392;13.066;2023-08-01T05:59:20;26.70;53.30
24730;DHT22;12832;52.392;13.066;2023-08-01T06:01:47;26.70;53.40
24730;DHT22;12832;52.392;13.066;2023-08-01T06:04:13;26.70;53.40
24730;DHT22;12832;52.392;13.066;2023-08-01T06:06:39;26.60;53.30
24730;DHT22;12832;52.392;13.066;2023-08-01T06:09:06;26.70;53.40
24730;DHT22;12832;52.392;13.066;2023-08-01T06:11:32;26.70;53.50
24730;DHT22;12832;52.392;13.066;2023-08-01T06:13:59;26.70;53.50
24730;DHT22;12832;52.392;13.066;2023-08-01T06:16:25;26.60;53.40
24730;DHT22;12832;52.392;13.066;2023-08-01T06:18:53;26.60;53.40
24730;DHT22;12832;52.392;13.066;2023-08-01T06:21:20;26.70;53.50
24730;DHT22;12832;52.392;13.066;2023-08-01T06:23:46;26.70;53.50
24730;DHT22;12832;52.392;13.066;2023-08-01T06:26:12;26.70;53.50
24730;DHT22;12832;52.392;13.066;2023-08-01T06:28:38;26.70;53.40
24730;DHT22;12832;52.392;13.066;2023-08-01T06:31:04;26.70;53.50
24730;DHT22;12832;52.392;13.066;2023-08-01T06:33:31;26.70;53.50
24730;DHT22;12832;52.392;13.066;2023-08-01T06:35:57;26.70;53.50
24730;DHT22;12832;52.392;13.066;2023-08-01T06:38:23;26.70;53.50
24730;DHT22;12832;52.392;13.066;2023-08-01T06:40:49;26.70;53.50
24730;DHT22;12832;52.392;13.066;2023-08-01T06:43:16;26.60;53.50
24730;DHT22;12832;52.392;13.066;2023-08-01T06:45:42;26.70;53.60
24730;DHT22;12832;52.392;13.066;2023-08-01T06:48:08;26.60;53.50
24730;DHT22;12832;52.392;13.066;2023-08-01T06:50:35;26.70;53.60
24730;DHT22;12832;52.392;13.066;2023-08-01T06:53:01;26.60;54.20
24730;DHT22;12832;52.392;13.066;2023-08-01T06:55:27;26.60;53.60
24730;DHT22;12832;52.392;13.066;2023-08-01T06:57:54;26.60;53.60
24730;DHT22;12832;52.392;13.066;2023-08-01T07:00:20;26.60;53.60
24730;DHT22;12832;52.392;13.066;2023-08-01T07:02:47;26.60;53.60
24730;DHT22;12832;52.392;13.066;2023-08-01T07:05:13;26.60;53.70
24730;DHT22;12832;52.392;13.066;2023-08-01T07:07:39;26.60;53.70
24730;DHT22;12832;52.392;13.066;2023-08-01T07:10:06;26.70;53.80
24730;DHT22;12832;52.392;13.066;2023-08-01T07:12:33;26.60;53.70
24730;DHT22;12832;52.392;13.066;2023-08-01T07:14:59;26.60;53.70
24730;DHT22;12832;52.392;13.066;2023-08-01T07:17:28;26.60;53.70
24730;DHT22;12832;52.392;13.066;2023-08-01T07:19:54;26.60;53.70
24730;DHT22;12832;52.392;13.066;2023-08-01T07:22:20;26.60;53.80
24730;DHT22;12832;52.392;13.066;2023-08-01T07:24:46;26.60;53.80
24730;DHT22;12832;52.392;13.066;2023-08-01T07:27:13;26.70;53.80
24730;DHT22;12832;52.392;13.066;2023-08-01T07:29:39;26.60;53.80
24730;DHT22;12832;52.392;13.066;2023-08-01T07:32:05;26.60;53.80
24730;DHT22;12832;52.392;13.066;2023-08-01T07:34:32;26.60;53.80
24730;DHT22;12832;52.392;13.066;2023-08-01T07:36:58;26.70;53.80
24730;DHT22;12832;52.392;13.066;2023-08-01T07:39:24;26.60;53.80
24730;DHT22;12832;52.392;13.066;2023-08-01T07:41:50;26.60;53.80
24730;DHT22;12832;52.392;13.066;2023-08-01T07:44:16;26.60;53.80
24730;DHT22;12832;52.392;13.066;2023-08-01T07:46:43;26.60;53.80
24730;DHT22;12832;52.392;13.066;2023-08-01T07:49:09;26.60;53.80
24730;DHT22;12832;52.392;13.066;2023-08-01T07:51:35;26.60;53.80
24730;DHT22;12832;52.392;13.066;2023-08-01T07:54:02;26.70;54.00
24730;DHT22;12832;52.392;13.066;2023-08-01T07:56:28;26.60;53.90
24730;DHT22;12832;52.392;13.066;2023-08-01T07:58:55;26.60;53.90
24730;DHT22;12832;52.392;13.066;2023-08-01T08:01:21;26.60;53.90
24730;DHT22;12832;52.392;13.066;2023-08-01T08:03:48;26.60;53.90
24730;DHT22;12832;52.392;13.066;2023-08-01T08:06:14;26.60;53.90
24730;DHT22;12832;52.392;13.066;2023-08-01T08:08:41;26.60;53.90
24730;DHT22;12832;52.392;13.066;2023-08-01T08:11:07;26.60;54.00
24730;DHT22;12832;52.392;13.066;2023-08-01T08:13:33;26.60;54.00
24730;DHT22;12832;52.392;13.066;2023-08-01T08:15:59;26.60;54.00
24730;DHT22;12832;52.392;13.066;2023-08-01T08:18:26;26.60;54.00
24730;DHT22;12832;52.392;13.066;2023-08-01T08:20:52;26.60;54.00
24730;DHT22;12832;52.392;13.066;2023-08-01T08:23:18;26.60;54.00
24730;DHT22;12832;52.392;13.066;2023-08-01T08:25:45;26.60;54.00
24730;DHT22;12832;52.392;13.066;2023-08-01T08:28:13;26.60;54.10
24730;DHT22;12832;52.392;13.066;2023-08-01T08:30:39;26.60;54.10
24730;DHT22;12832;52.392;13.066;2023-08-01T08:33:06;26.70;54.10
24730;DHT22;12832;52.392;13.066;2023-08-01T08:35:35;26.60;54.10
24730;DHT22;12832;52.392;13.066;2023-08-01T08:38:03;26.60;54.00
24730;DHT22;12832;52.392;13.066;2023-08-01T08:40:32;26.60;54.10
24730;DHT22;12832;52.392;13.066;2023-08-01T08:43:01;26.60;54.10
24730;DHT22;12832;52.392;13.066;2023-08-01T08:45:34;26.60;54.10
24730;DHT22;12832;52.392;13.066;2023-08-01T08:48:09;26.60;54.10
24730;DHT22;12832;52.392;13.066;2023-08-01T08:50:38;26.60;54.10
24730;DHT22;12832;52.392;13.066;2023-08-01T08:53:05;26.60;54.10
24730;DHT22;12832;52.392;13.066;2023-08-01T08:55:41;26.60;54.10
24730;DHT22;12832;52.392;13.066;2023-08-01T08:58:08;26.60;54.10
24730;DHT22;12832;52.392;13.066;2023-08-01T09:00:38;26.60;54.00
24730;DHT22;12832;52.392;13.066;2023-08-01T09:03:05;26.60;54.10
24730;DHT22;12832;52.392;13.066;2023-08-01T09:05:40;26.60;54.10
24730;DHT22;12832;52.392;13.066;2023-08-01T09:08:19;26.60;54.10
24730;DHT22;12832;52.392;13.066;2023-08-01T09:10:47;26.60;54.10
24730;DHT22;12832;52.392;13.066;2023-08-01T09:13:14;26.60;54.00
24730;DHT22;12832;52.392;13.066;2023-08-01T09:15:41;26.60;54.00
24730;DHT22;12832;52.392;13.066;2023-08-01T09:18:09;26.60;53.90
24730;DHT22;12832;52.392;13.066;2023-08-01T09:20:49;26.60;53.90
24730;DHT22;12832;52.392;13.066;2023-08-01T09:23:17;26.60;53.90
24730;DHT22;12832;52.392;13.066;2023-08-01T09:25:44;26.60;53.90
24730;DHT22;12832;52.392;13.066;2023-08-01T09:28:21;26.60;53.80
24730;DHT22;12832;52.392;13.066;2023-08-01T09:30:50;26.60;54.40
24730;DHT22;12832;52.392;13.066;2023-08-01T09:33:17;26.60;53.80
24730;DHT22;12832;52.392;13.066;2023-08-01T09:35:44;26.60;54.40
24730;DHT22;12832;52.392;13.066;2023-08-01T09:38:15;26.70;53.80
24730;DHT22;12832;52.392;13.066;2023-08-01T09:40:42;26.60;53.80
24730;DHT22;12832;52.392;13.066;2023-08-01T09:43:10;26.60;53.80
24730;DHT22;12832;52.392;13.066;2023-08-01T09:45:36;26.60;53.80
24730;DHT22;12832;52.392;13.066;2023-08-01T09:48:03;26.60;53.80
24730;DHT22;12832;52.392;13.066;2023-08-01T09:50:29;26.60;53.80
24730;DHT22;12832;52.392;13.066;2023-08-01T09:52:55;26.60;53.80
24730;DHT22;12832;52.392;13.066;2023-08-01T09:55:31;26.60;53.80
24730;DHT22;12832;52.392;13.066;2023-08-01T09:57:58;26.60;53.80
24730;DHT22;12832;52.392;13.066;2023-08-01T10:00:29;26.60;53.80
24730;DHT22;12832;52.392;13.066;2023-08-01T10:02:58;26.60;53.80
24730;DHT22;12832;52.392;13.066;2023-08-01T10:05:32;26.60;53.80
24730;DHT22;12832;52.392;13.066;2023-08-01T10:08:01;26.60;53.80
24730;DHT22;12832;52.392;13.066;2023-08-01T10:10:29;26.60;53.80
24730;DHT22;12832;52.392;13.066;2023-08-01T10:12:58;26.60;53.80
24730;DHT22;12832;52.392;13.066;2023-08-01T10:15:25;26.60;53.80
24730;DHT22;12832;52.392;13.066;2023-08-01T10:17:51;26.60;53.80
24730;DHT22;12832;52.392;13.066;2023-08-01T10:20:19;26.60;53.80
24730;DHT22;12832;52.392;13.066;2023-08-01T10:22:48;26.60;53.80
24730;DHT22;12832;52.392;13.066;2023-08-01T10:25:16;26.60;53.80
24730;DHT22;12832;52.392;13.066;2023-08-01T10:27:44;26.60;53.90
24730;DHT22;12832;52.392;13.066;2023-08-01T10:30:10;26.60;53.80
24730;DHT22;12832;52.392;13.066;2023-08-01T10:32:38;26.60;53.90
24730;DHT22;12832;52.392;13.066;2023-08-01T10:35:05;26.60;54.00
24730;DHT22;12832;52.392;13.066;2023-08-01T10:37:48;26.60;54.10
24730;DHT22;12832;52.392;13.066;2023-08-01T10:40:14;26.60;54.10
24730;DHT22;12832;52.392;13.066;2023-08-01T10:42:43;26.60;54.10
24730;DHT22;12832;52.392;13.066;2023-08-01T10:45:21;26.60;54.20
24730;DHT22;12832;52.392;13.066;2023-08-01T10:47:49;26.60;54.20
24730;DHT22;12832;52.392;13.066;2023-08-01T10:50:16;26.60;54.20
24730;DHT22;12832;52.392;13.066;2023-08-01T10:52:43;26.60;54.30
24730;DHT22;12832;52.392;13.066;2023-08-01T10:55:10;26.60;54.30
24730;DHT22;12832;52.392;13.066;2023-08-01T10:57:46;26.60;54.30
24730;DHT22;12832;52.392;13.066;2023-08-01T11:00:16;26.60;54.30
24730;DHT22;12832;52.392;13.066;2023-08-01T11:02:49;26.60;54.30
24730;DHT22;12832;52.392;13.066;2023-08-01T11:05:17;26.60;54.40
24730;DHT22;12832;52.392;13.066;2023-08-01T11:07:54;26.60;54.30
24730;DHT22;12832;52.392;13.066;2023-08-01T11:10:21;26.60;54.30
24730;DHT22;12832;52.392;13.066;2023-08-01T11:12:47;26.60;54.40
24730;DHT22;12832;52.392;13.066;2023-08-01T11:15:14;26.60;54.40
24730;DHT22;12832;52.392;13.066;2023-08-01T11:17:47;26.60;54.40
24730;DHT22;12832;52.392;13.066;2023-08-01T11:20:14;26.60;54.40
24730;DHT22;12832;52.392;13.066;2023-08-01T11:22:53;26.60;54.40
24730;DHT22;12832;52.392;13.066;2023-08-01T11:28:09;26.60;54.40
24730;DHT22;12832;52.392;13.066;2023-08-01T11:30:36;26.60;54.30
24730;DHT22;12832;52.392;13.066;2023-08-01T11:33:19;26.60;54.40
24730;DHT22;12832;52.392;13.066;2023-08-01T11:35:53;26.60;54.40
24730;DHT22;12832;52.392;13.066;2023-08-01T11:38:27;26.60;54.30
24730;DHT22;12832;52.392;13.066;2023-08-01T11:40:58;26.60;54.30
24730;DHT22;12832;52.392;13.066;2023-08-01T11:43:25;26.60;54.40
24730;DHT22;12832;52.392;13.066;2023-08-01T11:45:52;26.60;54.30
24730;DHT22;12832;52.392;13.066;2023-08-01T11:48:23;26.60;54.40
24730;DHT22;12832;52.392;13.066;2023-08-01T11:50:59;26.60;54.40
24730;DHT22;12832;52.392;13.066;2023-08-01T11:53:26;26.60;54.40
24730;DHT22;12832;52.392;13.066;2023-08-01T11:55:52;26.60;54.30
24730;DHT22;12832;52.392;13.066;2023-08-01T11:58:30;26.60;54.30
24730;DHT22;12832;52.392;13.066;2023-08-01T12:03:30;26.60;54.30
24730;DHT22;12832;52.392;13.066;2023-08-01T12:06:06;26.60;54.30
24730;DHT22;12832;52.392;13.066;2023-08-01T12:08:35;26.50;54.20
24730;DHT22;12832;52.392;13.066;2023-08-01T12:11:01;26.60;54.30
24730;DHT22;12832;52.392;13.066;2023-08-01T12:13:28;26.60;54.30
24730;DHT22;12832;52.392;13.066;2023-08-01T12:15:55;26.60;54.20
24730;DHT22;12832;52.392;13.066;2023-08-01T12:18:26;26.60;54.20
24730;DHT22;12832;52.392;13.066;2023-08-01T12:20:56;26.60;54.20
24730;DHT22;12832;52.392;13.066;2023-08-01T12:23:22;26.60;54.30
24730;DHT22;12832;52.392;13.066;2023-08-01T12:25:48;26.60;54.30
24730;DHT22;12832;52.392;13.066;2023-08-01T12:28:15;26.60;54.30
24730;DHT22;12832;52.392;13.066;2023-08-01T12:30:42;26.60;54.30
24730;DHT22;12832;52.392;13.066;2023-08-01T12:33:09;26.60;54.30
24730;DHT22;12832;52.392;13.066;2023-08-01T12:35:40;26.60;54.30
24730;DHT22;12832;52.392;13.066;2023-08-01T12:38:09;26.60;54.30
24730;DHT22;12832;52.392;13.066;2023-08-01T12:40:36;26.60;54.30
24730;DHT22;12832;52.392;13.066;2023-08-01T12:43:02;26.60;54.30
24730;DHT22;12832;52.392;13.066;2023-08-01T12:45:28;26.60;54.20
24730;DHT22;12832;52.392;13.066;2023-08-01T12:47:55;26.60;54.20
24730;DHT22;12832;52.392;13.066;2023-08-01T12:50:21;26.60;54.20
24730;DHT22;12832;52.392;13.066;2023-08-01T12:52:47;26.60;54.20
24730;DHT22;12832;52.392;13.066;2023-08-01T12:55:13;26.60;54.20
24730;DHT22;12832;52.392;13.066;2023-08-01T12:57:39;26.60;54.20
24730;DHT22;12832;52.392;13.066;2023-08-01T13:00:06;26.60;54.20
24730;DHT22;12832;52.392;13.066;2023-08-01T13:02:33;26.60;54.30
24730;DHT22;12832;52.392;13.066;2023-08-01T13:04:59;26.60;54.20
24730;DHT22;12832;52.392;13.066;2023-08-01T13:07:25;26.60;54.20
24730;DHT22;12832;52.392;13.066;2023-08-01T13:09:52;26.60;54.20
24730;DHT22;12832;52.392;13.066;2023-08-01T13:12:19;26.60;54.30
24730;DHT22;12832;52.392;13.066;2023-08-01T13:14:45;26.60;54.30
24730;DHT22;12832;52.392;13.066;2023-08-01T13:17:11;26.60;54.30
24730;DHT22;12832;52.392;13.066;2023-08-01T13:19:37;26.60;54.30
24730;DHT22;12832;52.392;13.066;2023-08-01T13:22:03;26.60;54.30
24730;DHT22;12832;52.392;13.066;2023-08-01T13:24:30;26.60;54.30
24730;DHT22;12832;52.392;13.066;2023-08-01T13:26:56;26.60;54.30
24730;DHT22;12832;52.392;13.066;2023-08-01T13:29:22;26.60;54.30
24730;DHT22;12832;52.392;13.066;2023-08-01T13:31:48;26.60;54.30
24730;DHT22;12832;52.392;13.066;2023-08-01T13:34:17;26.60;54.30
24730;DHT22;12832;52.392;13.066;2023-08-01T13:36:44;26.60;54.30
24730;DHT22;12832;52.392;13.066;2023-08-01T13:39:10;26.60;54.30
24730;DHT22;12832;52.392;13.066;2023-08-01T13:41:36;26.60;54.20
24730;DHT22;12832;52.392;13.066;2023-08-01T13:44:03;26.60;54.20
24730;DHT22;12832;52.392;13.066;2023-08-01T13:46:29;26.60;54.20
24730;DHT22;12832;52.392;13.066;2023-08-01T13:48:56;26.60;54.20
24730;DHT22;12832;52.392;13.066;2023-08-01T13:51:22;26.60;54.10
24730;DHT22;12832;52.392;13.066;2023-08-01T13:53:49;26.60;54.10
24730;DHT22;12832;52.392;13.066;2023-08-01T13:56:15;26.60;54.10
24730;DHT22;12832;52.392;13.066;2023-08-01T13:58:41;26.60;54.00
24730;DHT22;12832;52.392;13.066;2023-08-01T14:01:09;26.60;53.90
24730;DHT22;12832;52.392;13.066;2023-08-01T14:03:36;26.60;53.80
24730;DHT22;12832;52.392;13.066;2023-08-01T14:08:31;26.60;53.90
24730;DHT22;12832;52.392;13.066;2023-08-01T14:10:58;26.60;53.80
24730;DHT22;12832;52.392;13.066;2023-08-01T14:13:24;26.60;53.80
24730;DHT22;12832;52.392;13.066;2023-08-01T14:15:50;26.60;53.80
24730;DHT22;12832;52.392;13.066;2023-08-01T14:18:17;26.60;53.80
24730;DHT22;12832;52.392;13.066;2023-08-01T14:20:43;26.60;53.80
24730;DHT22;12832;52.392;13.066;2023-08-01T14:23:10;26.60;53.80
24730;DHT22;12832;52.392;13.066;2023-08-01T14:25:36;26.60;54.40
24730;DHT22;12832;52.392;13.066;2023-08-01T14:28:02;26.60;53.80
24730;DHT22;12832;52.392;13.066;2023-08-01T14:30:28;26.60;53.70
24730;DHT22;12832;52.392;13.066;2023-08-01T14:33:05;26.60;53.70
24730;DHT22;12832;52.392;13.066;2023-08-01T14:35:32;26.60;53.60
24730;DHT22;12832;52.392;13.066;2023-08-01T14:37:58;26.60;53.60
24730;DHT22;12832;52.392;13.066;2023-08-01T14:40:25;26.60;53.50
24730;DHT22;12832;52.392;13.066;2023-08-01T14:42:52;26.60;53.50
24730;DHT22;12832;52.392;13.066;2023-08-01T14:45:18;26.60;53.50
24730;DHT22;12832;52.392;13.066;2023-08-01T14:47:45;26.60;53.40
24730;DHT22;12832;52.392;13.066;2023-08-01T14:50:12;26.60;53.40
24730;DHT22;12832;52.392;13.066;2023-08-01T14:52:38;26.60;53.40
24730;DHT22;12832;52.392;13.066;2023-08-01T14:55:05;26.50;53.30
24730;DHT22;12832;52.392;13.066;2023-08-01T14:57:31;26.60;53.40
24730;DHT22;12832;52.392;13.066;2023-08-01T14:59:58;26.60;53.40
24730;DHT22;12832;52.392;13.066;2023-08-01T15:02:26;26.60;53.30
24730;DHT22;12832;52.392;13.066;2023-08-01T15:04:53;26.60;53.90
24730;DHT22;12832;52.392;13.066;2023-08-01T15:07:22;26.60;53.20
24730;DHT22;12832;52.392;13.066;2023-08-01T15:09:49;26.60;53.10
24730;DHT22;12832;52.392;13.066;2023-08-01T15:12:19;26.60;53.10
24730;DHT22;12832;52.392;13.066;2023-08-01T15:14:53;26.60;53.20
24730;DHT22;12832;52.392;13.066;2023-08-01T15:17:20;26.60;53.10
24730;DHT22;12832;52.392;13.066;2023-08-01T15:19:46;26.60;53.10
24730;DHT22;12832;52.392;13.066;2023-08-01T15:22:14;26.60;53.10